sensor_id;sensor_type;location;lat;lon;timestamp;temperature;humidity
16517;DHT22;8371;52.272;9.746;2023-01-16T00:00:19;7.80;70.60
16517;DHT22;8371;52.272;9.746;2023-01-16T00:02:45;7.80;70.70
16517;DHT22;8371;52.272;9.746;2023-01-16T00:05:10;7.80;70.80
16517;DHT22;8371;52.272;9.746;2023-01-16T00:07:36;7.80;70.70
16517;DHT22;8371;52.272;9.746;2023-01-16T00:10:03;7.80;70.60
16517;DHT22;8371;52.272;9.746;2023-01-16T00:12:29;7.80;70.70
16517;DHT22;8371;52.272;9.746;2023-01-16T00:14:55;7.80;70.60
16517;DHT22;8371;52.272;9.746;2023-01-16T00:17:21;7.80;71.40
16517;DHT22;8371;52.272;9.746;2023-01-16T00:19:47;7.80;70.60
16517;DHT22;8371;52.272;9.746;2023-01-16T00:22:13;7.80;70.60
16517;DHT22;8371;52.272;9.746;2023-01-16T00:24:38;7.80;70.70
16517;DHT22;8371;52.272;9.746;2023-01-16T00:27:04;7.80;70.70
16517;DHT22;8371;52.272;9.746;2023-01-16T00:29:30;7.80;70.70
16517;DHT22;8371;52.272;9.746;2023-01-16T00:31:55;7.80;70.00
16517;DHT22;8371;52.272;9.746;2023-01-16T00:34:21;7.80;70.60
16517;DHT22;8371;52.272;9.746;2023-01-16T00:36:47;7.80;70.60
16517;DHT22;8371;52.272;9.746;2023-01-16T00:39:13;7.80;71.40
16517;DHT22;8371;52.272;9.746;2023-01-16T00:41:38;7.80;70.50
16517;DHT22;8371;52.272;9.746;2023-01-16T00:44:04;7.80;70.50
16517;DHT22;8371;52.272;9.746;2023-01-16T00:46:29;7.70;70.30
16517;DHT22;8371;52.272;9.746;2023-01-16T00:48:55;7.70;70.30
16517;DHT22;8371;52.272;9.746;2023-01-16T00:51:22;7.70;70.30
16517;DHT22;8371;52.272;9.746;2023-01-16T00:53:47;7.60;70.30
16517;DHT22;8371;52.272;9.746;2023-01-16T00:56:13;7.60;70.30
16517;DHT22;8371;52.272;9.746;2023-01-16T00:58:39;7.60;70.30
16517;DHT22;8371;52.272;9.746;2023-01-16T01:01:05;7.50;70.40
16517;DHT22;8371;52.272;9.746;2023-01-16T01:03:31;7.50;70.50
16517;DHT22;8371;52.272;9.746;2023-01-16T01:05:57;7.50;70.50
16517;DHT22;8371;52.272;9.746;2023-01-16T01:08:23;7.40;70.60
16517;DHT22;8371;52.272;9.746;2023-01-16T01:10:48;7.40;70.70
16517;DHT22;8371;52.272;9.746;2023-01-16T01:13:14;7.40;70.90
16517;DHT22;8371;52.272;9.746;2023-01-16T01:15:40;7.40;71.00
16517;DHT22;8371;52.272;9.746;2023-01-16T01:18:06;7.40;71.30
16517;DHT22;8371;52.272;9.746;2023-01-16T01:20:32;7.40;71.40
16517;DHT22;8371;52.272;9.746;2023-01-16T01:22:58;7.40;71.60
16517;DHT22;8371;52.272;9.746;2023-01-16T01:25:24;7.40;71.60
16517;DHT22;8371;52.272;9.746;2023-01-16T01:27:50;7.40;71.60
16517;DHT22;8371;52.272;9.746;2023-01-16T01:30:16;7.40;71.70
16517;DHT22;8371;52.272;9.746;2023-01-16T01:32:42;7.40;71.60
16517;DHT22;8371;52.272;9.746;2023-01-16T01:35:08;7.40;71.70
16517;DHT22;8371;52.272;9.746;2023-01-16T01:37:34;7.40;71.70
16517;DHT22;8371;52.272;9.746;2023-01-16T01:40:02;7.40;71.60
16517;DHT22;8371;52.272;9.746;2023-01-16T01:42:29;7.40;71.60
16517;DHT22;8371;52.272;9.746;2023-01-16T01:45:24;7.40;71.60
16517;DHT22;8371;52.272;9.746;2023-01-16T01:48:09;7.30;71.60
16517;DHT22;8371;52.272;9.746;2023-01-16T01:50:47;7.20;71.50
16517;DHT22;8371;52.272;9.746;2023-01-16T01:53:16;7.20;71.60
16517;DHT22;8371;52.272;9.746;2023-01-16T01:55:44;7.20;71.70
16517;DHT22;8371;52.272;9.746;2023-01-16T01:58:14;7.20;71.70
16517;DHT22;8371;52.272;9.746;2023-01-16T02:00:43;7.10;71.70
16517;DHT22;8371;52.272;9.746;2023-01-16T02:03:12;7.10;71.70
16517;DHT22;8371;52.272;9.746;2023-01-16T02:05:42;7.00;71.60
16517;DHT22;8371;52.272;9.746;2023-01-16T02:08:09;7.00;71.60
16517;DHT22;8371;52.272;9.746;2023-01-16T02:10:41;6.90;71.60
16517;DHT22;8371;52.272;9.746;2023-01-16T02:13:07;6.90;71.80
16517;DHT22;8371;52.272;9.746;2023-01-16T02:15:33;6.90;72.00
16517;DHT22;8371;52.272;9.746;2023-01-16T02:17:59;6.90;72.10
16517;DHT22;8371;52.272;9.746;2023-01-16T02:20:54;6.80;72.10
16517;DHT22;8371;52.272;9.746;2023-01-16T02:23:37;6.80;72.10
16517;DHT22;8371;52.272;9.746;2023-01-16T02:26:31;6.80;72.20
16517;DHT22;8371;52.272;9.746;2023-01-16T02:34:29;6.70;72.40
16517;DHT22;8371;52.272;9.746;2023-01-16T02:37:35;6.70;72.50
16517;DHT22;8371;52.272;9.746;2023-01-16T02:40:20;6.80;72.70
16517;DHT22;8371;52.272;9.746;2023-01-16T02:42:59;6.80;72.70
16517;DHT22;8371;52.272;9.746;2023-01-16T02:45:42;6.80;72.80
16517;DHT22;8371;52.272;9.746;2023-01-16T02:48:18;6.80;72.90
16517;DHT22;8371;52.272;9.746;2023-01-16T02:50:52;6.80;72.90
16517;DHT22;8371;52.272;9.746;2023-01-16T02:53:20;6.80;72.90
16517;DHT22;8371;52.272;9.746;2023-01-16T02:55:59;6.90;72.90
16517;DHT22;8371;52.272;9.746;2023-01-16T02:58:27;6.90;72.90
16517;DHT22;8371;52.272;9.746;2023-01-16T03:00:56;6.90;73.00
16517;DHT22;8371;52.272;9.746;2023-01-16T03:03:43;7.00;73.10
16517;DHT22;8371;52.272;9.746;2023-01-16T03:08:50;7.00;73.40
16517;DHT22;8371;52.272;9.746;2023-01-16T03:11:21;7.10;73.30
16517;DHT22;8371;52.272;9.746;2023-01-16T03:22:12;7.20;73.50
16517;DHT22;8371;52.272;9.746;2023-01-16T03:25:05;7.30;73.50
16517;DHT22;8371;52.272;9.746;2023-01-16T03:27:52;7.30;73.60
16517;DHT22;8371;52.272;9.746;2023-01-16T03:30:47;7.30;73.60
16517;DHT22;8371;52.272;9.746;2023-01-16T03:33:28;7.30;73.50
16517;DHT22;8371;52.272;9.746;2023-01-16T03:35:57;7.40;73.50
16517;DHT22;8371;52.272;9.746;2023-01-16T03:38:24;7.40;73.50
16517;DHT22;8371;52.272;9.746;2023-01-16T03:40:52;7.40;73.40
16517;DHT22;8371;52.272;9.746;2023-01-16T03:43:28;7.40;73.40
16517;DHT22;8371;52.272;9.746;2023-01-16T03:46:01;7.40;73.40
16517;DHT22;8371;52.272;9.746;2023-01-16T03:48:32;7.40;73.40
16517;DHT22;8371;52.272;9.746;2023-01-16T03:51:00;7.40;73.30
16517;DHT22;8371;52.272;9.746;2023-01-16T03:53:32;7.30;73.20
16517;DHT22;8371;52.272;9.746;2023-01-16T03:58:46;7.30;73.00
16517;DHT22;8371;52.272;9.746;2023-01-16T04:01:24;7.20;72.90
16517;DHT22;8371;52.272;9.746;2023-01-16T04:03:54;7.20;72.90
16517;DHT22;8371;52.272;9.746;2023-01-16T04:09:08;7.00;72.70
16517;DHT22;8371;52.272;9.746;2023-01-16T04:11:34;7.00;72.90
16517;DHT22;8371;52.272;9.746;2023-01-16T04:14:03;6.90;73.00
16517;DHT22;8371;52.272;9.746;2023-01-16T04:16:30;6.90;73.20
16517;DHT22;8371;52.272;9.746;2023-01-16T04:18:57;6.80;73.30
16517;DHT22;8371;52.272;9.746;2023-01-16T04:21:27;6.80;74.30
16517;DHT22;8371;52.272;9.746;2023-01-16T04:23:55;6.80;73.60
16517;DHT22;8371;52.272;9.746;2023-01-16T04:26:22;6.80;73.80
16517;DHT22;8371;52.272;9.746;2023-01-16T04:28:48;6.80;74.60
16517;DHT22;8371;52.272;9.746;2023-01-16T04:31:15;6.80;74.00
16517;DHT22;8371;52.272;9.746;2023-01-16T04:33:41;6.80;74.00
16517;DHT22;8371;52.272;9.746;2023-01-16T04:36:07;6.90;74.20
16517;DHT22;8371;52.272;9.746;2023-01-16T04:38:33;6.90;74.10
16517;DHT22;8371;52.272;9.746;2023-01-16T04:40:58;6.90;74.10
16517;DHT22;8371;52.272;9.746;2023-01-16T04:43:24;7.00;74.10
16517;DHT22;8371;52.272;9.746;2023-01-16T04:45:50;7.00;73.90
16517;DHT22;8371;52.272;9.746;2023-01-16T04:48:16;6.90;73.70
16517;DHT22;8371;52.272;9.746;2023-01-16T04:50:41;6.90;74.10
16517;DHT22;8371;52.272;9.746;2023-01-16T04:53:07;6.90;73.50
16517;DHT22;8371;52.272;9.746;2023-01-16T04:55:33;6.80;73.40
16517;DHT22;8371;52.272;9.746;2023-01-16T04:57:58;6.80;73.40
16517;DHT22;8371;52.272;9.746;2023-01-16T05:00:24;6.80;73.50
16517;DHT22;8371;52.272;9.746;2023-01-16T05:02:52;6.70;73.20
16517;DHT22;8371;52.272;9.746;2023-01-16T05:05:18;6.70;73.30
16517;DHT22;8371;52.272;9.746;2023-01-16T05:07:43;6.60;73.40
16517;DHT22;8371;52.272;9.746;2023-01-16T05:10:10;6.60;73.60
16517;DHT22;8371;52.272;9.746;2023-01-16T05:12:35;6.50;73.80
16517;DHT22;8371;52.272;9.746;2023-01-16T05:15:01;6.50;73.80
16517;DHT22;8371;52.272;9.746;2023-01-16T05:17:27;6.50;74.80
16517;DHT22;8371;52.272;9.746;2023-01-16T05:19:52;6.50;74.10
16517;DHT22;8371;52.272;9.746;2023-01-16T05:22:18;6.50;74.20
16517;DHT22;8371;52.272;9.746;2023-01-16T05:24:44;6.50;74.30
16517;DHT22;8371;52.272;9.746;2023-01-16T05:27:09;6.50;74.20
16517;DHT22;8371;52.272;9.746;2023-01-16T05:29:35;6.50;74.10
16517;DHT22;8371;52.272;9.746;2023-01-16T05:32:01;6.40;74.00
16517;DHT22;8371;52.272;9.746;2023-01-16T05:34:26;6.40;74.00
16517;DHT22;8371;52.272;9.746;2023-01-16T05:36:52;6.40;74.00
16517;DHT22;8371;52.272;9.746;2023-01-16T05:39:18;6.40;74.20
16517;DHT22;8371;52.272;9.746;2023-01-16T05:41:43;6.40;74.20
16517;DHT22;8371;52.272;9.746;2023-01-16T05:44:09;6.40;74.40
16517;DHT22;8371;52.272;9.746;2023-01-16T05:46:35;6.40;74.60
16517;DHT22;8371;52.272;9.746;2023-01-16T05:49:00;6.40;74.60
16517;DHT22;8371;52.272;9.746;2023-01-16T05:51:26;6.40;74.70
16517;DHT22;8371;52.272;9.746;2023-01-16T05:53:52;6.40;74.80
16517;DHT22;8371;52.272;9.746;2023-01-16T05:56:20;6.50;74.90
16517;DHT22;8371;52.272;9.746;2023-01-16T05:58:47;6.50;75.00
16517;DHT22;8371;52.272;9.746;2023-01-16T06:01:13;6.50;75.00
16517;DHT22;8371;52.272;9.746;2023-01-16T06:03:38;6.50;75.00
16517;DHT22;8371;52.272;9.746;2023-01-16T06:06:04;6.50;75.20
16517;DHT22;8371;52.272;9.746;2023-01-16T06:08:30;6.60;75.10
16517;DHT22;8371;52.272;9.746;2023-01-16T06:10:57;6.60;75.10
16517;DHT22;8371;52.272;9.746;2023-01-16T06:13:23;6.60;75.10
16517;DHT22;8371;52.272;9.746;2023-01-16T06:15:49;6.50;75.00
16517;DHT22;8371;52.272;9.746;2023-01-16T06:18:14;6.50;75.00
16517;DHT22;8371;52.272;9.746;2023-01-16T06:20:41;6.50;75.00
16517;DHT22;8371;52.272;9.746;2023-01-16T06:23:07;6.50;75.10
16517;DHT22;8371;52.272;9.746;2023-01-16T06:25:33;6.50;75.20
16517;DHT22;8371;52.272;9.746;2023-01-16T06:27:59;6.50;75.20
16517;DHT22;8371;52.272;9.746;2023-01-16T06:30:25;6.50;75.40
16517;DHT22;8371;52.272;9.746;2023-01-16T06:32:50;6.50;75.40
16517;DHT22;8371;52.272;9.746;2023-01-16T06:35:17;6.50;75.40
16517;DHT22;8371;52.272;9.746;2023-01-16T06:37:43;6.50;75.50
16517;DHT22;8371;52.272;9.746;2023-01-16T06:40:09;6.50;75.40
16517;DHT22;8371;52.272;9.746;2023-01-16T06:42:35;6.50;75.50
16517;DHT22;8371;52.272;9.746;2023-01-16T06:45:01;6.40;75.30
16517;DHT22;8371;52.272;9.746;2023-01-16T06:47:27;6.40;75.40
16517;DHT22;8371;52.272;9.746;2023-01-16T06:49:53;6.40;75.60
16517;DHT22;8371;52.272;9.746;2023-01-16T06:52:18;6.40;75.30
16517;DHT22;8371;52.272;9.746;2023-01-16T06:54:44;6.40;75.30
16517;DHT22;8371;52.272;9.746;2023-01-16T06:57:10;6.30;75.20
16517;DHT22;8371;52.272;9.746;2023-01-16T06:59:35;6.30;75.40
16517;DHT22;8371;52.272;9.746;2023-01-16T07:02:01;6.30;75.50
16517;DHT22;8371;52.272;9.746;2023-01-16T07:04:27;6.30;75.40
16517;DHT22;8371;52.272;9.746;2023-01-16T07:06:52;6.20;75.50
16517;DHT22;8371;52.272;9.746;2023-01-16T07:09:18;6.20;75.70
16517;DHT22;8371;52.272;9.746;2023-01-16T07:11:44;6.20;75.80
16517;DHT22;8371;52.272;9.746;2023-01-16T07:14:09;6.30;76.10
16517;DHT22;8371;52.272;9.746;2023-01-16T07:16:53;6.30;76.20
16517;DHT22;8371;52.272;9.746;2023-01-16T07:19:38;6.30;76.10
16517;DHT22;8371;52.272;9.746;2023-01-16T07:22:22;6.40;76.40
16517;DHT22;8371;52.272;9.746;2023-01-16T07:25:01;6.40;76.40
16517;DHT22;8371;52.272;9.746;2023-01-16T07:27:28;6.40;76.30
16517;DHT22;8371;52.272;9.746;2023-01-16T07:29:54;6.50;76.40
16517;DHT22;8371;52.272;9.746;2023-01-16T07:32:20;6.50;76.40
16517;DHT22;8371;52.272;9.746;2023-01-16T07:34:46;6.50;76.30
16517;DHT22;8371;52.272;9.746;2023-01-16T07:37:12;6.60;77.20
16517;DHT22;8371;52.272;9.746;2023-01-16T07:39:37;6.60;76.30
16517;DHT22;8371;52.272;9.746;2023-01-16T07:42:04;6.60;76.30
16517;DHT22;8371;52.272;9.746;2023-01-16T07:44:30;6.60;76.10
16517;DHT22;8371;52.272;9.746;2023-01-16T07:46:56;6.60;76.00
16517;DHT22;8371;52.272;9.746;2023-01-16T07:49:22;6.60;76.10
16517;DHT22;8371;52.272;9.746;2023-01-16T07:51:48;6.60;76.10
16517;DHT22;8371;52.272;9.746;2023-01-16T07:54:13;6.70;76.00
16517;DHT22;8371;52.272;9.746;2023-01-16T07:56:39;6.70;76.20
16517;DHT22;8371;52.272;9.746;2023-01-16T07:59:05;6.70;76.40
16517;DHT22;8371;52.272;9.746;2023-01-16T08:01:32;6.80;76.50
16517;DHT22;8371;52.272;9.746;2023-01-16T08:03:58;6.80;76.60
16517;DHT22;8371;52.272;9.746;2023-01-16T08:06:23;6.80;76.60
16517;DHT22;8371;52.272;9.746;2023-01-16T08:08:49;6.90;76.50
16517;DHT22;8371;52.272;9.746;2023-01-16T08:11:15;7.00;76.50
16517;DHT22;8371;52.272;9.746;2023-01-16T08:13:59;7.00;76.50
16517;DHT22;8371;52.272;9.746;2023-01-16T08:16:25;7.10;76.40
16517;DHT22;8371;52.272;9.746;2023-01-16T08:18:50;7.10;76.40
16517;DHT22;8371;52.272;9.746;2023-01-16T08:21:16;7.20;76.40
16517;DHT22;8371;52.272;9.746;2023-01-16T08:23:43;7.30;76.40
16517;DHT22;8371;52.272;9.746;2023-01-16T08:26:09;7.30;76.50
16517;DHT22;8371;52.272;9.746;2023-01-16T08:28:35;7.40;76.40
16517;DHT22;8371;52.272;9.746;2023-01-16T08:31:05;7.50;76.40
16517;DHT22;8371;52.272;9.746;2023-01-16T08:33:34;7.50;76.30
16517;DHT22;8371;52.272;9.746;2023-01-16T08:36:02;7.60;76.20
16517;DHT22;8371;52.272;9.746;2023-01-16T08:38:29;7.60;76.10
16517;DHT22;8371;52.272;9.746;2023-01-16T08:40:54;7.70;76.00
16517;DHT22;8371;52.272;9.746;2023-01-16T08:43:20;7.70;75.90
16517;DHT22;8371;52.272;9.746;2023-01-16T08:46:04;7.80;75.90
16517;DHT22;8371;52.272;9.746;2023-01-16T08:48:51;7.80;75.70
16517;DHT22;8371;52.272;9.746;2023-01-16T08:51:36;7.90;75.70
16517;DHT22;8371;52.272;9.746;2023-01-16T08:54:02;7.90;75.60
16517;DHT22;8371;52.272;9.746;2023-01-16T08:56:28;7.90;75.50
16517;DHT22;8371;52.272;9.746;2023-01-16T08:58:53;8.00;75.50
16517;DHT22;8371;52.272;9.746;2023-01-16T09:01:19;8.00;75.50
16517;DHT22;8371;52.272;9.746;2023-01-16T09:03:45;8.00;75.50
16517;DHT22;8371;52.272;9.746;2023-01-16T09:06:11;8.10;75.40
16517;DHT22;8371;52.272;9.746;2023-01-16T09:08:36;8.10;75.40
16517;DHT22;8371;52.272;9.746;2023-01-16T09:11:02;8.20;75.40
16517;DHT22;8371;52.272;9.746;2023-01-16T09:13:48;8.20;75.30
16517;DHT22;8371;52.272;9.746;2023-01-16T09:16:21;8.30;75.30
16517;DHT22;8371;52.272;9.746;2023-01-16T09:18:48;8.30;75.20
16517;DHT22;8371;52.272;9.746;2023-01-16T09:21:15;8.40;75.20
16517;DHT22;8371;52.272;9.746;2023-01-16T09:23:41;8.50;75.20
16517;DHT22;8371;52.272;9.746;2023-01-16T09:26:08;8.50;75.10
16517;DHT22;8371;52.272;9.746;2023-01-16T09:28:34;8.60;75.10
16517;DHT22;8371;52.272;9.746;2023-01-16T09:30:59;8.60;75.00
16517;DHT22;8371;52.272;9.746;2023-01-16T09:33:25;8.60;74.80
16517;DHT22;8371;52.272;9.746;2023-01-16T09:35:51;8.70;74.70
16517;DHT22;8371;52.272;9.746;2023-01-16T09:38:16;8.70;74.60
16517;DHT22;8371;52.272;9.746;2023-01-16T09:40:56;8.70;74.50
16517;DHT22;8371;52.272;9.746;2023-01-16T09:43:37;8.80;74.50
16517;DHT22;8371;52.272;9.746;2023-01-16T09:46:19;8.80;74.50
16517;DHT22;8371;52.272;9.746;2023-01-16T09:49:00;8.80;74.40
16517;DHT22;8371;52.272;9.746;2023-01-16T09:51:39;8.80;74.40
16517;DHT22;8371;52.272;9.746;2023-01-16T09:54:15;8.90;74.40
16517;DHT22;8371;52.272;9.746;2023-01-16T09:57:01;8.90;74.30
16517;DHT22;8371;52.272;9.746;2023-01-16T09:59:49;8.90;74.20
16517;DHT22;8371;52.272;9.746;2023-01-16T10:02:28;8.90;74.10
16517;DHT22;8371;52.272;9.746;2023-01-16T10:04:56;9.00;74.10
16517;DHT22;8371;52.272;9.746;2023-01-16T10:10:28;9.00;74.00
16517;DHT22;8371;52.272;9.746;2023-01-16T10:24:17;9.30;73.90
16517;DHT22;8371;52.272;9.746;2023-01-16T10:29:35;9.40;73.90
16517;DHT22;8371;52.272;9.746;2023-01-16T10:32:11;9.40;73.90
16517;DHT22;8371;52.272;9.746;2023-01-16T10:34:47;9.50;73.90
16517;DHT22;8371;52.272;9.746;2023-01-16T10:37:09;9.60;73.80
16517;DHT22;8371;52.272;9.746;2023-01-16T10:39:36;9.60;73.70
16517;DHT22;8371;52.272;9.746;2023-01-16T10:42:14;9.70;73.60
16517;DHT22;8371;52.272;9.746;2023-01-16T10:45:23;9.70;73.30
16517;DHT22;8371;52.272;9.746;2023-01-16T10:48:11;9.80;73.00
16517;DHT22;8371;52.272;9.746;2023-01-16T10:50:57;9.80;72.90
16517;DHT22;8371;52.272;9.746;2023-01-16T10:53:23;9.90;72.80
16517;DHT22;8371;52.272;9.746;2023-01-16T10:55:50;9.80;72.70
16517;DHT22;8371;52.272;9.746;2023-01-16T10:58:29;9.90;72.50
16517;DHT22;8371;52.272;9.746;2023-01-16T11:01:01;9.90;72.40
16517;DHT22;8371;52.272;9.746;2023-01-16T11:03:48;9.90;72.40
16517;DHT22;8371;52.272;9.746;2023-01-16T11:06:23;9.90;72.40
16517;DHT22;8371;52.272;9.746;2023-01-16T11:08:57;9.90;72.30
16517;DHT22;8371;52.272;9.746;2023-01-16T11:11:22;9.90;72.30
16517;DHT22;8371;52.272;9.746;2023-01-16T11:14:19;9.90;72.40
16517;DHT22;8371;52.272;9.746;2023-01-16T11:17:20;9.90;72.40
16517;DHT22;8371;52.272;9.746;2023-01-16T11:19:57;10.00;72.40
16517;DHT22;8371;52.272;9.746;2023-01-16T11:22:25;9.90;72.30
16517;DHT22;8371;52.272;9.746;2023-01-16T11:24:57;10.00;72.30
16517;DHT22;8371;52.272;9.746;2023-01-16T11:27:26;10.00;72.20
16517;DHT22;8371;52.272;9.746;2023-01-16T11:29:54;10.00;72.10
16517;DHT22;8371;52.272;9.746;2023-01-16T11:32:22;10.00;72.00
16517;DHT22;8371;52.272;9.746;2023-01-16T11:34:53;10.00;71.90
16517;DHT22;8371;52.272;9.746;2023-01-16T11:37:20;10.00;71.70
16517;DHT22;8371;52.272;9.746;2023-01-16T11:39:49;10.00;71.60
16517;DHT22;8371;52.272;9.746;2023-01-16T11:42:16;10.10;71.40
16517;DHT22;8371;52.272;9.746;2023-01-16T11:45:22;10.10;71.40
16517;DHT22;8371;52.272;9.746;2023-01-16T11:48:08;10.10;71.40
16517;DHT22;8371;52.272;9.746;2023-01-16T11:50:58;10.10;71.30
16517;DHT22;8371;52.272;9.746;2023-01-16T11:53:32;10.00;71.20
16517;DHT22;8371;52.272;9.746;2023-01-16T11:56:30;10.00;71.20
16517;DHT22;8371;52.272;9.746;2023-01-16T12:02:03;10.00;71.30
16517;DHT22;8371;52.272;9.746;2023-01-16T12:10:42;10.10;71.20
16517;DHT22;8371;52.272;9.746;2023-01-16T12:13:09;10.10;71.30
16517;DHT22;8371;52.272;9.746;2023-01-16T12:16:25;10.10;71.30
16517;DHT22;8371;52.272;9.746;2023-01-16T12:22:09;10.20;71.30
16517;DHT22;8371;52.272;9.746;2023-01-16T12:27:32;10.30;71.20
16517;DHT22;8371;52.272;9.746;2023-01-16T12:33:01;10.40;71.10
16517;DHT22;8371;52.272;9.746;2023-01-16T12:35:41;10.40;70.90
16517;DHT22;8371;52.272;9.746;2023-01-16T12:38:14;10.50;70.90
16517;DHT22;8371;52.272;9.746;2023-01-16T12:41:05;10.50;70.80
16517;DHT22;8371;52.272;9.746;2023-01-16T12:46:51;10.60;70.70
16517;DHT22;8371;52.272;9.746;2023-01-16T12:52:11;10.70;70.50
16517;DHT22;8371;52.272;9.746;2023-01-16T12:54:57;10.70;70.70
16517;DHT22;8371;52.272;9.746;2023-01-16T12:57:29;10.70;70.50
16517;DHT22;8371;52.272;9.746;2023-01-16T13:00:04;10.80;71.20
16517;DHT22;8371;52.272;9.746;2023-01-16T13:02:40;10.80;70.20
16517;DHT22;8371;52.272;9.746;2023-01-16T13:05:08;10.80;71.00
16517;DHT22;8371;52.272;9.746;2023-01-16T13:07:44;10.90;70.30
16517;DHT22;8371;52.272;9.746;2023-01-16T13:13:04;11.00;70.40
16517;DHT22;8371;52.272;9.746;2023-01-16T13:15:51;11.00;70.40
16517;DHT22;8371;52.272;9.746;2023-01-16T13:18:35;11.10;70.20
16517;DHT22;8371;52.272;9.746;2023-01-16T13:21:03;11.10;69.90
16517;DHT22;8371;52.272;9.746;2023-01-16T13:23:43;11.10;69.90
16517;DHT22;8371;52.272;9.746;2023-01-16T13:26:11;11.10;69.50
16517;DHT22;8371;52.272;9.746;2023-01-16T13:29:14;11.20;69.50
16517;DHT22;8371;52.272;9.746;2023-01-16T13:31:48;11.10;69.40
16517;DHT22;8371;52.272;9.746;2023-01-16T13:34:20;11.10;69.40
16517;DHT22;8371;52.272;9.746;2023-01-16T13:37:03;11.10;69.50
16517;DHT22;8371;52.272;9.746;2023-01-16T13:42:17;11.10;69.30
16517;DHT22;8371;52.272;9.746;2023-01-16T13:44:48;11.00;68.90
16517;DHT22;8371;52.272;9.746;2023-01-16T13:47:38;11.00;68.80
16517;DHT22;8371;52.272;9.746;2023-01-16T13:50:24;10.90;68.90
16517;DHT22;8371;52.272;9.746;2023-01-16T13:52:53;10.90;68.50
16517;DHT22;8371;52.272;9.746;2023-01-16T13:55:31;10.80;68.60
16517;DHT22;8371;52.272;9.746;2023-01-16T13:58:19;10.70;68.50
16517;DHT22;8371;52.272;9.746;2023-01-16T14:00:43;10.70;68.30
16517;DHT22;8371;52.272;9.746;2023-01-16T14:03:21;10.60;68.40
16517;DHT22;8371;52.272;9.746;2023-01-16T14:05:50;10.50;68.20
16517;DHT22;8371;52.272;9.746;2023-01-16T14:08:47;10.40;68.30
16517;DHT22;8371;52.272;9.746;2023-01-16T14:11:38;10.40;68.30
16517;DHT22;8371;52.272;9.746;2023-01-16T14:14:27;10.20;68.40
16517;DHT22;8371;52.272;9.746;2023-01-16T14:17:10;10.10;68.20
16517;DHT22;8371;52.272;9.746;2023-01-16T14:19:51;10.10;68.50
16517;DHT22;8371;52.272;9.746;2023-01-16T14:22:19;9.90;68.30
16517;DHT22;8371;52.272;9.746;2023-01-16T14:24:56;9.90;68.60
16517;DHT22;8371;52.272;9.746;2023-01-16T14:27:28;9.80;68.70
16517;DHT22;8371;52.272;9.746;2023-01-16T14:29:58;9.70;68.60
16517;DHT22;8371;52.272;9.746;2023-01-16T14:32:29;9.70;68.70
16517;DHT22;8371;52.272;9.746;2023-01-16T14:35:04;9.60;68.90
16517;DHT22;8371;52.272;9.746;2023-01-16T14:37:33;9.60;68.90
16517;DHT22;8371;52.272;9.746;2023-01-16T14:42:46;9.40;68.80
16517;DHT22;8371;52.272;9.746;2023-01-16T14:45:33;9.40;69.00
16517;DHT22;8371;52.272;9.746;2023-01-16T14:51:14;9.30;69.30
16517;DHT22;8371;52.272;9.746;2023-01-16T14:54:04;9.20;69.30
16517;DHT22;8371;52.272;9.746;2023-01-16T14:56:57;9.20;69.50
16517;DHT22;8371;52.272;9.746;2023-01-16T14:59:30;9.10;69.50
16517;DHT22;8371;52.272;9.746;2023-01-16T15:02:23;9.10;69.50
16517;DHT22;8371;52.272;9.746;2023-01-16T15:04:55;9.10;69.40
16517;DHT22;8371;52.272;9.746;2023-01-16T15:07:29;9.10;69.40
16517;DHT22;8371;52.272;9.746;2023-01-16T15:09:55;9.00;69.40
16517;DHT22;8371;52.272;9.746;2023-01-16T15:12:27;9.00;69.40
16517;DHT22;8371;52.272;9.746;2023-01-16T15:14:56;8.90;69.50
16517;DHT22;8371;52.272;9.746;2023-01-16T15:17:27;8.90;69.50
16517;DHT22;8371;52.272;9.746;2023-01-16T15:20:20;8.90;69.50
16517;DHT22;8371;52.272;9.746;2023-01-16T15:23:04;8.90;69.60
16517;DHT22;8371;52.272;9.746;2023-01-16T15:28:36;8.80;69.70
16517;DHT22;8371;52.272;9.746;2023-01-16T15:31:05;8.80;69.80
16517;DHT22;8371;52.272;9.746;2023-01-16T15:33:31;8.80;69.70
16517;DHT22;8371;52.272;9.746;2023-01-16T15:36:22;8.80;69.80
16517;DHT22;8371;52.272;9.746;2023-01-16T15:38:51;8.70;69.80
16517;DHT22;8371;52.272;9.746;2023-01-16T15:41:21;8.70;69.80
16517;DHT22;8371;52.272;9.746;2023-01-16T15:43:49;8.70;69.90
16517;DHT22;8371;52.272;9.746;2023-01-16T15:49:21;8.60;69.90
16517;DHT22;8371;52.272;9.746;2023-01-16T15:51:52;8.60;69.90
16517;DHT22;8371;52.272;9.746;2023-01-16T15:54:19;8.60;69.90
16517;DHT22;8371;52.272;9.746;2023-01-16T15:56:46;8.50;69.90
16517;DHT22;8371;52.272;9.746;2023-01-16T15:59:24;8.50;70.60
16517;DHT22;8371;52.272;9.746;2023-01-16T16:01:51;8.40;69.80
16517;DHT22;8371;52.272;9.746;2023-01-16T16:04:17;8.40;69.80
16517;DHT22;8371;52.272;9.746;2023-01-16T16:06:44;8.30;69.70
16517;DHT22;8371;52.272;9.746;2023-01-16T16:09:17;8.30;69.70
16517;DHT22;8371;52.272;9.746;2023-01-16T16:11:43;8.20;69.60
16517;DHT22;8371;52.272;9.746;2023-01-16T16:14:21;8.20;69.70
16517;DHT22;8371;52.272;9.746;2023-01-16T16:17:25;8.10;69.60
16517;DHT22;8371;52.272;9.746;2023-01-16T16:20:35;8.00;69.60
16517;DHT22;8371;52.272;9.746;2023-01-16T16:23:19;7.90;69.70
16517;DHT22;8371;52.272;9.746;2023-01-16T16:31:11;7.60;70.00
16517;DHT22;8371;52.272;9.746;2023-01-16T16:33:31;7.60;70.00
16517;DHT22;8371;52.272;9.746;2023-01-16T16:35:59;7.50;70.00
16517;DHT22;8371;52.272;9.746;2023-01-16T16:43:47;7.30;70.10
16517;DHT22;8371;52.272;9.746;2023-01-16T16:48:57;7.20;70.20
16517;DHT22;8371;52.272;9.746;2023-01-16T16:51:28;7.20;70.90
16517;DHT22;8371;52.272;9.746;2023-01-16T16:53:56;7.10;70.40
16517;DHT22;8371;52.272;9.746;2023-01-16T16:56:25;7.10;70.40
16517;DHT22;8371;52.272;9.746;2023-01-16T16:58:52;7.00;70.50
16517;DHT22;8371;52.272;9.746;2023-01-16T17:01:20;7.00;70.50
16517;DHT22;8371;52.272;9.746;2023-01-16T17:03:49;6.90;70.50
16517;DHT22;8371;52.272;9.746;2023-01-16T17:06:23;6.90;71.40
16517;DHT22;8371;52.272;9.746;2023-01-16T17:08:48;6.90;70.70
16517;DHT22;8371;52.272;9.746;2023-01-16T17:11:15;6.80;70.70
16517;DHT22;8371;52.272;9.746;2023-01-16T17:13:41;6.80;70.70
16517;DHT22;8371;52.272;9.746;2023-01-16T17:16:19;6.80;70.80
16517;DHT22;8371;52.272;9.746;2023-01-16T17:18:46;6.80;70.80
16517;DHT22;8371;52.272;9.746;2023-01-16T17:21:16;6.70;70.80
16517;DHT22;8371;52.272;9.746;2023-01-16T17:23:43;6.70;70.90
16517;DHT22;8371;52.272;9.746;2023-01-16T17:26:09;6.70;71.00
16517;DHT22;8371;52.272;9.746;2023-01-16T17:28:39;6.70;71.10
16517;DHT22;8371;52.272;9.746;2023-01-16T17:31:06;6.70;71.20
16517;DHT22;8371;52.272;9.746;2023-01-16T17:33:32;6.80;71.20
16517;DHT22;8371;52.272;9.746;2023-01-16T17:35:58;6.70;71.20
16517;DHT22;8371;52.272;9.746;2023-01-16T17:38:42;6.80;71.30
16517;DHT22;8371;52.272;9.746;2023-01-16T17:41:13;6.80;72.00
16517;DHT22;8371;52.272;9.746;2023-01-16T17:43:35;6.80;71.40
16517;DHT22;8371;52.272;9.746;2023-01-16T17:46:19;6.80;71.30
16517;DHT22;8371;52.272;9.746;2023-01-16T17:48:50;6.80;71.30
16517;DHT22;8371;52.272;9.746;2023-01-16T17:51:16;6.90;71.30
16517;DHT22;8371;52.272;9.746;2023-01-16T17:53:44;6.90;71.20
16517;DHT22;8371;52.272;9.746;2023-01-16T17:56:10;6.90;71.20
16517;DHT22;8371;52.272;9.746;2023-01-16T17:58:38;6.90;71.10
16517;DHT22;8371;52.272;9.746;2023-01-16T18:01:18;6.90;71.10